Time;durP1;ratioP1;P1;durP2;ratioP2;P2;SDS_P1;SDS_P2;PMS_P1;PMS_P2;Temp;Humidity;BMP_temperature;BMP_pressure;BME280_temperature;BME280_humidity;BME280_pressure;Samples;Min_cycle;Max_cycle;Signal;HPM_P1;HPM_P2
2022/08/14 00:02:17;;;;;;;9.90;5.95;;;26.50;70.90;;;;;;4932272;28;20198;-75
2022/08/14 00:04:46;;;;;;;12.45;5.88;;;26.50;71.10;;;;;;4937788;28;20206;-74
2022/08/14 00:07:14;;;;;;;11.45;6.00;;;26.50;71.20;;;;;;4934642;28;20226;-75
2022/08/14 00:09:43;;;;;;;9.23;5.10;;;26.40;71.90;;;;;;4935549;28;20737;-75
2022/08/14 00:12:33;;;;;;;11.70;5.78;;;26.40;72.20;;;;;;4933109;29;20191;-75
2022/08/14 00:15:13;;;;;;;11.77;6.22;;;26.40;72.10;;;;;;4938703;28;20205;-74
2022/08/14 00:17:42;;;;;;;9.00;4.63;;;26.40;71.90;;;;;;4928949;28;20227;-75
2022/08/14 00:20:23;;;;;;;8.15;4.75;;;26.40;71.80;;;;;;4943968;28;20206;-74
2022/08/14 00:22:58;;;;;;;10.82;4.95;;;26.30;71.40;;;;;;4940573;28;20198;-75
2022/08/14 00:25:40;;;;;;;9.13;5.20;;;26.30;71.20;;;;;;4938271;28;20201;-75
2022/08/14 00:28:12;;;;;;;14.85;5.15;;;26.40;71.20;;;;;;4930504;28;20331;-74
2022/08/14 00:30:44;;;;;;;9.93;4.93;;;26.30;70.90;;;;;;4936494;28;20183;-74
2022/08/14 00:33:12;;;;;;;10.90;5.63;;;26.30;70.90;;;;;;4931736;28;20191;-74
2022/08/14 00:35:44;;;;;;;9.82;5.20;;;26.30;70.90;;;;;;4933381;28;20199;-74
2022/08/14 00:38:33;;;;;;;8.68;4.78;;;26.30;71.00;;;;;;4937742;28;20265;-74
2022/08/14 00:41:03;;;;;;;10.93;5.75;;;26.20;71.10;;;;;;4939621;28;20305;-74
2022/08/14 00:43:32;;;;;;;8.35;4.70;;;26.20;70.90;;;;;;4934905;29;20230;-74
2022/08/14 00:46:05;;;;;;;10.05;5.10;;;26.20;71.00;;;;;;4935804;28;20233;-74
2022/08/14 00:48:36;;;;;;;8.43;5.40;;;26.20;70.90;;;;;;4931565;28;20297;-74
2022/08/14 00:51:07;;;;;;;10.73;4.22;;;26.20;70.80;;;;;;4936230;28;20191;-74
2022/08/14 00:53:38;;;;;;;9.43;4.75;;;26.10;70.70;;;;;;4939695;28;20233;-75
2022/08/14 00:56:10;;;;;;;8.52;4.53;;;26.10;70.60;;;;;;4936489;28;20196;-74
2022/08/14 00:58:42;;;;;;;9.00;4.75;;;26.10;70.50;;;;;;4930165;28;20285;-74
2022/08/14 01:01:17;;;;;;;12.43;4.53;;;26.10;70.40;;;;;;4928855;28;20210;-75
2022/08/14 01:03:46;;;;;;;11.85;4.88;;;26.10;70.40;;;;;;4940322;28;20195;-75
2022/08/14 01:06:20;;;;;;;10.85;4.68;;;26.10;70.40;;;;;;4937593;28;20194;-74
2022/08/14 01:08:49;;;;;;;10.00;5.07;;;26.10;70.30;;;;;;4936126;28;20258;-74
2022/08/14 01:11:27;;;;;;;8.27;4.45;;;26.10;70.20;;;;;;4930798;28;20654;-75
2022/08/14 01:14:04;;;;;;;10.10;4.60;;;26.10;70.20;;;;;;4941528;28;20195;-75
2022/08/14 01:16:54;;;;;;;9.70;4.90;;;26.10;70.10;;;;;;4928404;28;20209;-75
2022/08/14 01:22:12;;;;;;;8.70;4.20;;;26.00;69.70;;;;;;4934847;28;20198;-74
2022/08/14 01:24:47;;;;;;;9.05;5.07;;;26.00;69.60;;;;;;4938353;28;20202;-74
2022/08/14 01:27:20;;;;;;;7.13;4.20;;;26.00;69.60;;;;;;4934577;28;20219;-75
2022/08/14 01:29:56;;;;;;;7.28;4.43;;;26.00;69.60;;;;;;4932555;28;20258;-74
2022/08/14 01:32:30;;;;;;;8.60;4.05;;;25.90;69.50;;;;;;4937724;28;20203;-74
2022/08/14 01:35:09;;;;;;;7.63;3.90;;;25.90;69.50;;;;;;4936786;28;20201;-74
2022/08/14 01:37:49;;;;;;;7.93;4.57;;;25.90;69.40;;;;;;4941213;28;20285;-75
2022/08/14 01:40:24;;;;;;;9.57;4.15;;;25.90;69.40;;;;;;4935240;28;20198;-74
2022/08/14 01:43:16;;;;;;;7.72;4.38;;;25.90;69.40;;;;;;4932086;28;20302;-74
2022/08/14 01:45:50;;;;;;;7.55;4.30;;;25.80;69.30;;;;;;4929188;29;20198;-74
2022/08/14 01:48:34;;;;;;;9.65;4.90;;;25.80;69.30;;;;;;4937884;28;20211;-75
2022/08/14 01:51:05;;;;;;;7.55;4.40;;;25.80;69.30;;;;;;4934644;28;20198;-75
2022/08/14 01:53:52;;;;;;;8.32;4.10;;;25.70;69.30;;;;;;4936472;28;20195;-74
2022/08/14 01:56:32;;;;;;;9.10;4.63;;;25.70;69.30;;;;;;4935218;28;20329;-74
2022/08/14 01:59:07;;;;;;;7.60;3.95;;;25.70;69.40;;;;;;4932742;28;20241;-74
2022/08/14 02:01:37;;;;;;;9.90;4.53;;;25.70;69.40;;;;;;4929111;28;20540;-75
2022/08/14 02:04:20;;;;;;;10.57;4.55;;;25.70;69.50;;;;;;4937563;28;20277;-74
2022/08/14 02:07:09;;;;;;;9.35;5.32;;;25.60;69.50;;;;;;4934741;29;20222;-74
2022/08/14 02:09:44;;;;;;;8.73;4.70;;;25.60;69.60;;;;;;4931615;28;20191;-74
2022/08/14 02:12:23;;;;;;;10.27;5.10;;;25.60;69.70;;;;;;4935594;28;20505;-74
2022/08/14 02:14:56;;;;;;;10.07;4.90;;;25.60;69.70;;;;;;4934577;28;22357;-75
2022/08/14 02:17:29;;;;;;;11.73;5.53;;;25.50;69.70;;;;;;4935777;28;20696;-72
2022/08/14 02:19:58;;;;;;;12.40;5.55;;;25.50;69.90;;;;;;4926350;29;20227;-75
2022/08/14 02:22:30;;;;;;;10.40;5.18;;;25.50;69.90;;;;;;4932232;28;20190;-75
2022/08/14 02:25:02;;;;;;;13.32;5.82;;;25.50;70.10;;;;;;4933588;28;20665;-74
2022/08/14 02:27:31;;;;;;;10.23;5.78;;;25.50;70.10;;;;;;4935601;28;20724;-74
2022/08/14 02:30:19;;;;;;;11.18;5.10;;;25.50;70.10;;;;;;4927121;28;20592;-74
2022/08/14 02:32:49;;;;;;;9.27;4.78;;;25.40;70.00;;;;;;4933755;28;20198;-74
2022/08/14 02:35:18;;;;;;;8.43;4.82;;;25.40;70.10;;;;;;4934434;28;20249;-75
2022/08/14 02:37:49;;;;;;;12.43;5.45;;;25.40;70.10;;;;;;4936286;28;20292;-75
2022/08/14 02:40:20;;;;;;;8.07;4.82;;;25.40;70.20;;;;;;4934420;28;20647;-75
2022/08/14 02:43:01;;;;;;;8.60;5.30;;;25.40;70.30;;;;;;4930023;28;20286;-75
2022/08/14 02:45:33;;;;;;;9.02;4.32;;;25.40;70.40;;;;;;4928396;28;20206;-75
2022/08/14 02:48:13;;;;;;;12.45;5.47;;;25.40;70.50;;;;;;4934525;28;20955;-74
2022/08/14 02:51:03;;;;;;;10.35;5.25;;;25.30;70.50;;;;;;4925914;28;20235;-73
2022/08/14 02:53:32;;;;;;;9.75;5.22;;;25.30;70.60;;;;;;4932088;29;20187;-74
2022/08/14 02:56:07;;;;;;;8.55;5.28;;;25.30;70.80;;;;;;4925267;28;20199;-74
2022/08/14 02:59:00;;;;;;;8.98;5.45;;;25.30;70.80;;;;;;4931040;28;20896;-74
2022/08/14 03:01:33;;;;;;;12.18;5.72;;;25.20;70.90;;;;;;4934321;28;20293;-75
2022/08/14 03:04:17;;;;;;;9.82;5.50;;;25.20;71.10;;;;;;4931211;28;20194;-73
2022/08/14 03:06:49;;;;;;;10.98;5.70;;;25.20;71.20;;;;;;4930378;28;20191;-73
2022/08/14 03:09:33;;;;;;;10.73;5.70;;;25.10;71.20;;;;;;4933860;28;20824;-74
2022/08/14 03:12:23;;;;;;;9.95;5.30;;;25.10;71.30;;;;;;4931229;29;20717;-74
2022/08/14 03:14:59;;;;;;;10.07;5.60;;;25.10;71.50;;;;;;4931185;28;20195;-73
2022/08/14 03:17:27;;;;;;;8.23;5.18;;;25.00;71.40;;;;;;4931465;28;20192;-73
2022/08/14 03:19:59;;;;;;;9.27;5.53;;;25.10;71.60;;;;;;4932484;29;20310;-74
2022/08/14 03:22:28;;;;;;;9.85;5.88;;;25.00;71.90;;;;;;4936353;28;20197;-73
2022/08/14 03:24:57;;;;;;;10.15;5.65;;;25.00;72.00;;;;;;4925292;28;20237;-74
2022/08/14 03:27:30;;;;;;;9.63;6.00;;;25.00;72.00;;;;;;4935526;28;20191;-74
2022/08/14 03:30:18;;;;;;;11.65;5.85;;;25.00;72.20;;;;;;4929884;28;20957;-73
2022/08/14 03:32:51;;;;;;;10.43;5.57;;;25.00;72.20;;;;;;4928444;28;20243;-74
2022/08/14 03:35:23;;;;;;;11.48;5.57;;;25.00;72.30;;;;;;4935159;29;20230;-73
2022/08/14 03:38:09;;;;;;;9.50;5.22;;;25.00;72.30;;;;;;4936972;29;20935;-74
2022/08/14 03:40:57;;;;;;;11.18;6.07;;;25.00;72.40;;;;;;4930296;28;20207;-74
2022/08/14 03:43:27;;;;;;;11.00;5.70;;;25.00;72.50;;;;;;4938145;28;20227;-74
2022/08/14 03:46:00;;;;;;;12.68;6.05;;;25.00;72.70;;;;;;4936344;28;20202;-75
2022/08/14 03:48:38;;;;;;;9.77;6.07;;;25.00;72.70;;;;;;4932938;28;20214;-74
2022/08/14 03:51:09;;;;;;;11.48;6.10;;;25.00;72.70;;;;;;4931077;28;20958;-74
2022/08/14 03:53:42;;;;;;;10.82;5.40;;;24.90;72.70;;;;;;4934155;28;20198;-74
2022/08/14 03:56:13;;;;;;;12.25;6.05;;;25.00;72.90;;;;;;4937246;28;20923;-75
2022/08/14 03:58:55;;;;;;;10.25;6.00;;;25.00;72.90;;;;;;4930700;28;20197;-74
2022/08/14 04:01:26;;;;;;;11.85;6.40;;;24.90;73.00;;;;;;4934982;28;20273;-75
2022/08/14 04:04:09;;;;;;;10.73;6.28;;;25.00;73.10;;;;;;4932753;29;20210;-74
2022/08/14 04:06:38;;;;;;;9.65;6.00;;;25.00;73.00;;;;;;4935744;28;20763;-74
2022/08/14 04:09:14;;;;;;;10.98;5.43;;;25.00;73.10;;;;;;4936102;28;20362;-74
2022/08/14 04:11:45;;;;;;;9.95;6.05;;;25.00;73.20;;;;;;4935678;28;20202;-74
2022/08/14 04:14:14;;;;;;;11.93;6.25;;;25.00;73.30;;;;;;4940332;29;20206;-74
2022/08/14 04:16:46;;;;;;;10.00;6.30;;;25.00;73.30;;;;;;4931223;28;20223;-74
2022/08/14 04:19:16;;;;;;;12.13;7.07;;;25.00;73.30;;;;;;4936722;28;20345;-73
2022/08/14 04:21:44;;;;;;;9.68;5.70;;;25.00;73.30;;;;;;4939163;28;20210;-75
2022/08/14 04:24:31;;;;;;;12.57;6.80;;;25.00;73.30;;;;;;4937204;28;20676;-74
2022/08/14 04:27:07;;;;;;;10.23;5.95;;;25.00;73.30;;;;;;4935216;29;20731;-73
2022/08/14 04:29:39;;;;;;;11.35;5.47;;;25.00;73.30;;;;;;4929173;28;20266;-74
2022/08/14 04:32:11;;;;;;;10.80;6.20;;;25.00;73.40;;;;;;4931563;28;20221;-74
2022/08/14 04:34:59;;;;;;;13.15;6.57;;;25.00;73.40;;;;;;4934288;28;20277;-74
2022/08/14 04:46:10;;;;;;;10.38;6.65;;;25.00;73.60;;;;;;4931700;28;20257;-74
2022/08/14 04:48:58;;;;;;;10.60;5.78;;;25.00;73.70;;;;;;4930062;28;20230;-74
2022/08/14 04:51:28;;;;;;;12.38;6.55;;;25.00;73.60;;;;;;4938806;29;20250;-74
2022/08/14 04:54:14;;;;;;;9.57;5.82;;;25.00;73.80;;;;;;4938626;29;20921;-74
2022/08/14 04:56:44;;;;;;;10.85;6.28;;;25.10;73.90;;;;;;4939200;28;20183;-74
2022/08/14 04:59:12;;;;;;;11.55;6.15;;;25.10;74.10;;;;;;4934994;28;20269;-75
2022/08/14 05:01:43;;;;;;;12.60;6.22;;;25.10;74.10;;;;;;4937511;28;20818;-74
2022/08/14 05:04:19;;;;;;;9.35;6.53;;;25.10;74.20;;;;;;4929836;28;20910;-74
2022/08/14 05:06:50;;;;;;;12.10;6.95;;;25.10;74.20;;;;;;4937171;29;20294;-73
2022/08/14 05:09:22;;;;;;;9.57;6.05;;;25.10;74.10;;;;;;4933042;29;20603;-74
2022/08/14 05:11:51;;;;;;;17.60;7.18;;;25.10;74.30;;;;;;4940167;28;20232;-74
2022/08/14 05:14:22;;;;;;;11.98;6.43;;;25.10;74.60;;;;;;4938749;29;20293;-74
2022/08/14 05:17:13;;;;;;;11.02;6.78;;;25.20;75.00;;;;;;4937719;28;20202;-74
2022/08/14 05:19:41;;;;;;;12.43;6.78;;;25.20;75.40;;;;;;4937275;29;20218;-74
2022/08/14 05:22:30;;;;;;;11.98;6.50;;;25.20;75.20;;;;;;4936037;28;20210;-73
2022/08/14 05:24:59;;;;;;;13.63;6.85;;;25.20;75.20;;;;;;4939199;29;20195;-74
2022/08/14 05:27:28;;;;;;;12.85;6.80;;;25.20;75.20;;;;;;4935998;28;20233;-74
2022/08/14 05:30:05;;;;;;;14.05;6.43;;;25.30;75.40;;;;;;4933784;29;21039;-73
2022/08/14 05:32:39;;;;;;;13.93;6.85;;;25.30;75.50;;;;;;4935966;28;20190;-74
2022/08/14 05:35:11;;;;;;;12.32;7.25;;;25.30;75.60;;;;;;4932636;28;22559;-74
2022/08/14 05:37:53;;;;;;;15.15;7.13;;;25.40;75.70;;;;;;4935852;28;20233;-73
2022/08/14 05:40:21;;;;;;;13.63;7.57;;;25.40;76.00;;;;;;4930733;28;20194;-74
2022/08/14 05:42:51;;;;;;;13.98;7.95;;;25.40;76.10;;;;;;4929582;29;20212;-74
2022/08/14 05:45:20;;;;;;;13.07;7.38;;;25.40;76.70;;;;;;4933021;29;20203;-72
2022/08/14 05:47:51;;;;;;;12.63;7.38;;;25.40;77.00;;;;;;4935355;29;20194;-72
2022/08/14 05:50:19;;;;;;;14.93;7.22;;;25.50;77.20;;;;;;4932328;28;20364;-72
2022/08/14 05:52:50;;;;;;;17.42;7.35;;;25.50;77.30;;;;;;4933100;29;20650;-72
2022/08/14 05:55:21;;;;;;;13.10;7.63;;;25.50;77.40;;;;;;4944928;28;20206;-73
2022/08/14 05:57:55;;;;;;;15.15;7.85;;;25.50;78.10;;;;;;4934332;28;20205;-73
2022/08/14 06:00:32;;;;;;;14.23;7.53;;;25.50;78.90;;;;;;4933863;28;20202;-72
2022/08/14 06:03:13;;;;;;;12.88;7.43;;;25.50;78.70;;;;;;4937750;29;20191;-73
2022/08/14 06:05:42;;;;;;;14.25;7.35;;;25.40;78.80;;;;;;4934945;29;20593;-73
2022/08/14 06:08:17;;;;;;;16.27;8.25;;;25.50;78.80;;;;;;4936757;28;20597;-74
2022/08/14 06:11:06;;;;;;;13.27;8.05;;;25.50;79.00;;;;;;4936965;29;20218;-74
2022/08/14 06:13:37;;;;;;;13.63;7.93;;;25.50;80.10;;;;;;4933660;28;20195;-72
2022/08/14 06:16:15;;;;;;;16.40;8.07;;;25.50;80.20;;;;;;4937369;29;20221;-73
2022/08/14 06:18:50;;;;;;;17.00;8.52;;;25.40;80.50;;;;;;4940686;29;20226;-73
2022/08/14 06:21:20;;;;;;;14.80;7.78;;;25.40;81.10;;;;;;4931412;28;20205;-73
2022/08/14 06:23:50;;;;;;;21.38;9.70;;;25.40;81.90;;;;;;4929432;28;20206;-72
2022/08/14 06:26:19;;;;;;;15.77;8.30;;;25.40;81.60;;;;;;4942485;28;20626;-72
2022/08/14 06:28:50;;;;;;;15.85;9.18;;;25.40;81.10;;;;;;4933322;28;20218;-72
2022/08/14 06:31:20;;;;;;;16.60;9.30;;;25.50;81.10;;;;;;4949022;28;20249;-72
2022/08/14 06:33:51;;;;;;;20.27;8.60;;;25.50;80.70;;;;;;4933667;28;20668;-72
2022/08/14 06:36:40;;;;;;;16.58;8.50;;;25.60;80.40;;;;;;4931333;29;20206;-72
2022/08/14 06:39:08;;;;;;;13.35;8.45;;;25.60;80.20;;;;;;4930658;29;20233;-72
2022/08/14 06:41:38;;;;;;;22.55;8.82;;;25.70;80.20;;;;;;4933924;28;20195;-72
2022/08/14 06:44:27;;;;;;;16.73;9.07;;;25.80;80.50;;;;;;4930908;29;20738;-72
2022/08/14 06:47:01;;;;;;;16.67;9.43;;;25.80;80.50;;;;;;4933807;29;20197;-73
2022/08/14 06:49:36;;;;;;;15.77;8.48;;;25.80;80.80;;;;;;4930598;29;20187;-72
2022/08/14 06:52:11;;;;;;;16.10;8.48;;;25.90;80.90;;;;;;4934515;29;20887;-71
2022/08/14 06:54:43;;;;;;;17.50;9.20;;;25.90;80.70;;;;;;4935806;29;20199;-73
2022/08/14 06:57:12;;;;;;;17.33;9.75;;;26.00;80.80;;;;;;4930565;28;20201;-72
2022/08/14 06:59:41;;;;;;;17.35;9.13;;;26.00;81.90;;;;;;4935522;28;20206;-73
2022/08/14 07:07:51;;;;;;;17.95;9.40;;;26.20;82.80;;;;;;4932493;28;20191;-73
2022/08/14 07:10:22;;;;;;;16.88;9.45;;;26.30;82.80;;;;;;4931190;29;20602;-73
2022/08/14 07:12:53;;;;;;;16.08;8.57;;;26.40;82.70;;;;;;4934839;28;20190;-73
2022/08/14 07:15:32;;;;;;;14.85;9.35;;;26.50;82.80;;;;;;4935282;29;20195;-72
2022/08/14 07:18:10;;;;;;;16.05;9.30;;;26.60;82.50;;;;;;4945399;28;20233;-72
2022/08/14 07:20:43;;;;;;;15.45;7.50;;;26.70;82.20;;;;;;4936141;28;20219;-73
2022/08/14 07:23:12;;;;;;;8.05;4.70;;;26.70;81.70;;;;;;4937374;28;20202;-74
2022/08/14 07:25:49;;;;;;;10.80;5.50;;;26.80;79.70;;;;;;4937204;28;20689;-73
2022/08/14 07:28:22;;;;;;;9.57;5.20;;;26.80;79.10;;;;;;4935779;28;20200;-72
2022/08/14 07:30:54;;;;;;;7.05;4.28;;;26.90;78.40;;;;;;4940025;29;20214;-73
2022/08/14 07:33:24;;;;;;;9.18;4.40;;;26.90;77.90;;;;;;4938462;28;20939;-74
2022/08/14 07:36:01;;;;;;;10.35;4.22;;;26.90;77.40;;;;;;4940589;29;20202;-74
2022/08/14 07:38:51;;;;;;;7.80;3.67;;;26.90;76.30;;;;;;4938256;29;20191;-75
2022/08/14 07:41:19;;;;;;;8.77;4.10;;;26.90;75.30;;;;;;4939482;29;20222;-73
2022/08/14 07:43:49;;;;;;;8.20;3.30;;;26.90;74.30;;;;;;4940208;29;20756;-75
2022/08/14 07:46:25;;;;;;;10.13;3.05;;;26.80;72.70;;;;;;4929883;28;20231;-73
2022/08/14 07:48:56;;;;;;;9.05;3.03;;;26.80;71.90;;;;;;4930147;28;20286;-74
2022/08/14 07:51:26;;;;;;;10.63;3.05;;;26.80;71.10;;;;;;4934629;28;20723;-74
2022/08/14 07:54:06;;;;;;;5.47;2.42;;;26.90;71.50;;;;;;4938777;28;20213;-73
2022/08/14 07:56:39;;;;;;;3.05;1.80;;;26.90;70.80;;;;;;4936211;29;20199;-73
2022/08/14 07:59:20;;;;;;;4.35;1.98;;;26.80;69.40;;;;;;4937509;29;20241;-74
2022/08/14 08:02:11;;;;;;;9.13;2.20;;;26.80;69.30;;;;;;4933694;28;20208;-73
2022/08/14 08:04:50;;;;;;;6.13;1.73;;;26.80;69.70;;;;;;4933381;28;20706;-73
2022/08/14 08:07:25;;;;;;;3.75;1.80;;;26.80;68.80;;;;;;4932928;29;20668;-72
2022/08/14 08:09:59;;;;;;;3.20;1.40;;;26.80;68.70;;;;;;4938296;29;20198;-72
2022/08/14 08:12:30;;;;;;;6.07;1.60;;;26.80;68.60;;;;;;4935169;29;20218;-74
2022/08/14 08:15:01;;;;;;;7.45;1.80;;;26.80;68.40;;;;;;4937713;28;20202;-72
2022/08/14 08:17:36;;;;;;;5.07;1.50;;;26.80;69.00;;;;;;4937073;28;20313;-73
2022/08/14 08:20:09;;;;;;;4.60;1.88;;;26.70;69.80;;;;;;4939622;29;20217;-73
2022/08/14 08:22:42;;;;;;;3.97;1.75;;;26.70;70.00;;;;;;4936470;28;20546;-74
2022/08/14 08:25:17;;;;;;;3.70;1.83;;;26.70;70.60;;;;;;4935513;28;20191;-73
2022/08/14 08:27:56;;;;;;;4.50;1.80;;;26.70;70.80;;;;;;4937834;28;20201;-73
2022/08/14 08:30:25;;;;;;;4.80;2.17;;;26.80;71.20;;;;;;4931165;28;20227;-73
2022/08/14 08:33:00;;;;;;;6.47;2.60;;;26.80;71.00;;;;;;4934893;29;20285;-74
2022/08/14 08:35:33;;;;;;;6.13;2.65;;;26.80;70.90;;;;;;4931826;28;20191;-75
2022/08/14 08:38:23;;;;;;;5.65;2.83;;;26.80;71.00;;;;;;4934934;29;20700;-73
2022/08/14 08:41:11;;;;;;;4.93;2.97;;;26.90;71.30;;;;;;4937742;29;20227;-73
2022/08/14 08:43:40;;;;;;;6.15;3.20;;;26.80;71.30;;;;;;4936081;28;20455;-72
2022/08/14 08:46:15;;;;;;;4.90;2.97;;;26.90;71.20;;;;;;4933451;29;20246;-72
2022/08/14 08:48:51;;;;;;;4.90;3.00;;;27.00;71.00;;;;;;4939184;28;20264;-72
2022/08/14 08:51:23;;;;;;;7.32;3.70;;;27.00;70.80;;;;;;4935389;28;20488;-72
2022/08/14 08:54:02;;;;;;;5.18;3.17;;;27.00;71.00;;;;;;4937054;29;20198;-72
2022/08/14 08:56:39;;;;;;;6.70;2.85;;;27.00;71.00;;;;;;4934070;28;20195;-73
2022/08/14 08:59:18;;;;;;;4.75;2.97;;;27.00;71.20;;;;;;4942066;28;20198;-73
2022/08/14 09:01:53;;;;;;;6.55;3.45;;;27.10;70.60;;;;;;4939736;29;20187;-74
2022/08/14 09:04:26;;;;;;;6.22;3.50;;;27.10;70.60;;;;;;4935885;28;20193;-72
2022/08/14 09:06:55;;;;;;;7.32;3.72;;;27.20;71.00;;;;;;4938894;29;20574;-75
2022/08/14 09:09:51;;;;;;;7.15;3.25;;;27.20;71.30;;;;;;4939912;29;20894;-75
2022/08/14 09:12:22;;;;;;;5.72;3.45;;;27.20;70.20;;;;;;4940866;29;20314;-73
2022/08/14 09:14:52;;;;;;;6.50;3.45;;;27.30;69.80;;;;;;4937890;28;20391;-73
2022/08/14 09:17:20;;;;;;;6.78;3.20;;;27.50;69.40;;;;;;4937281;29;20701;-72
2022/08/14 09:19:54;;;;;;;6.50;3.15;;;27.50;68.80;;;;;;4935426;29;21264;-73
2022/08/14 09:22:23;;;;;;;5.55;3.17;;;27.60;68.60;;;;;;4943482;28;20206;-73
2022/08/14 09:25:06;;;;;;;5.47;3.30;;;27.60;67.70;;;;;;4940323;28;20235;-72
2022/08/14 09:27:36;;;;;;;6.63;3.90;;;27.60;67.80;;;;;;4937524;28;20194;-73
2022/08/14 09:30:08;;;;;;;6.05;3.88;;;27.50;68.00;;;;;;4935626;28;20198;-74
2022/08/14 09:33:35;;;;;;;7.72;4.10;;;27.50;68.10;;;;;;4942258;29;20229;-74
2022/08/14 09:36:35;;;;;;;6.88;4.10;;;27.50;68.30;;;;;;4924589;29;20198;-74
2022/08/14 09:39:17;;;;;;;8.13;4.22;;;27.40;68.40;;;;;;4939590;28;20230;-75
2022/08/14 09:42:07;;;;;;;8.40;3.83;;;27.40;68.60;;;;;;4933687;29;20198;-75
2022/08/14 09:45:10;;;;;;;6.43;3.90;;;27.40;68.70;;;;;;4943613;29;20233;-75
2022/08/14 09:47:45;;;;;;;7.40;4.40;;;27.40;68.90;;;;;;4940755;28;20289;-74
2022/08/14 09:50:21;;;;;;;8.85;4.25;;;27.40;69.00;;;;;;4937015;29;20202;-74
2022/08/14 09:52:57;;;;;;;6.10;3.22;;;27.30;68.80;;;;;;4940020;28;20202;-74
2022/08/14 09:55:32;;;;;;;7.60;4.20;;;27.30;68.80;;;;;;4937328;28;20776;-74
2022/08/14 09:58:16;;;;;;;5.07;2.75;;;27.30;68.80;;;;;;4931098;28;20190;-72
2022/08/14 10:00:52;;;;;;;4.88;3.22;;;27.30;68.70;;;;;;4934823;29;20219;-75
2022/08/14 10:03:32;;;;;;;7.30;3.95;;;27.30;68.50;;;;;;4940770;28;20704;-75
2022/08/14 10:06:08;;;;;;;7.40;4.05;;;27.30;68.50;;;;;;4934751;28;20197;-75
2022/08/14 10:08:44;;;;;;;7.93;4.05;;;27.30;68.80;;;;;;4941778;29;20253;-72
2022/08/14 10:11:21;;;;;;;7.15;4.40;;;27.40;69.00;;;;;;4938247;29;20190;-72
2022/08/14 10:13:54;;;;;;;7.93;4.35;;;27.40;69.30;;;;;;4940416;29;20198;-72
2022/08/14 10:16:27;;;;;;;7.13;4.20;;;27.40;69.60;;;;;;4939143;28;20559;-72
2022/08/14 10:19:05;;;;;;;7.30;4.50;;;27.40;69.70;;;;;;4934476;28;20460;-75
2022/08/14 10:21:35;;;;;;;10.98;5.32;;;27.50;70.00;;;;;;4930795;28;20205;-75
2022/08/14 10:24:07;;;;;;;8.18;4.72;;;27.50;70.20;;;;;;4941400;29;20664;-74
2022/08/14 10:26:42;;;;;;;9.80;4.88;;;27.60;70.50;;;;;;4927469;28;20566;-71
2022/08/14 10:29:16;;;;;;;9.55;4.78;;;27.70;70.60;;;;;;4931463;29;20212;-73
2022/08/14 10:32:10;;;;;;;7.22;4.30;;;27.70;70.30;;;;;;5351688;23;20238;-74
2022/08/14 10:35:05;;;;;;;7.88;4.55;;;27.80;70.60;;;;;;4941721;28;20664;-75
2022/08/14 10:37:47;;;;;;;7.25;4.47;;;27.90;68.70;;;;;;4940584;29;20269;-75
2022/08/14 10:40:25;;;;;;;7.80;4.35;;;27.90;68.70;;;;;;4943078;28;20576;-76
2022/08/14 10:43:19;;;;;;;6.93;4.40;;;27.90;68.60;;;;;;4935124;28;20198;-75
2022/08/14 10:46:00;;;;;;;7.78;4.80;;;28.00;68.80;;;;;;4942143;29;20291;-76
2022/08/14 10:48:57;;;;;;;9.45;4.53;;;28.10;68.80;;;;;;4934806;28;20253;-76
2022/08/14 10:51:28;;;;;;;8.43;4.95;;;28.10;68.90;;;;;;4934114;29;20199;-75
2022/08/14 10:54:08;;;;;;;10.93;4.85;;;28.20;68.90;;;;;;4938435;29;20995;-75
2022/08/14 10:56:57;;;;;;;9.10;5.53;;;28.30;69.10;;;;;;4944624;29;20206;-75
2022/08/14 10:59:26;;;;;;;11.10;5.22;;;28.40;69.10;;;;;;4933190;28;20649;-76
2022/08/14 11:02:01;;;;;;;11.50;5.15;;;28.50;69.00;;;;;;4935543;29;20195;-77
2022/08/14 11:04:30;;;;;;;11.88;5.75;;;28.50;68.70;;;;;;4945065;29;20195;-76
2022/08/14 11:07:00;;;;;;;10.93;4.60;;;28.50;68.80;;;;;;4943816;28;20190;-76
2022/08/14 11:09:34;;;;;;;9.27;5.20;;;28.60;68.90;;;;;;4941098;28;20199;-76
2022/08/14 11:12:02;;;;;;;7.93;5.28;;;28.70;68.90;;;;;;4934838;29;20229;-75
2022/08/14 11:14:53;;;;;;;8.52;5.45;;;28.80;68.80;;;;;;4944134;29;20214;-75
2022/08/14 11:17:29;;;;;;;8.60;4.55;;;28.90;68.50;;;;;;4941760;29;20194;-76
2022/08/14 11:20:02;;;;;;;7.90;4.60;;;29.00;68.40;;;;;;4941957;29;20230;-76
2022/08/14 11:22:32;;;;;;;10.52;5.78;;;29.10;68.30;;;;;;4940476;28;20195;-75
2022/08/14 11:25:22;;;;;;;7.53;4.72;;;29.20;67.40;;;;;;4943104;29;20197;-75
2022/08/14 11:27:53;;;;;;;8.52;4.97;;;29.20;66.40;;;;;;4943336;28;20451;-75
2022/08/14 11:30:24;;;;;;;8.65;4.50;;;29.40;66.00;;;;;;4931313;28;20613;-74
2022/08/14 11:33:14;;;;;;;10.38;5.35;;;29.50;65.90;;;;;;4975052;28;20886;-75
2022/08/14 11:35:48;;;;;;;11.52;4.95;;;29.60;65.90;;;;;;4990921;28;20193;-75
2022/08/14 11:38:18;;;;;;;6.72;4.43;;;29.70;65.30;;;;;;4976584;28;20853;-76
2022/08/14 11:40:49;;;;;;;7.03;4.57;;;29.70;63.90;;;;;;4980127;28;20190;-76
2022/08/14 11:43:20;;;;;;;9.57;5.32;;;29.90;63.80;;;;;;4968422;28;20196;-74
2022/08/14 11:45:57;;;;;;;7.10;4.68;;;30.00;63.50;;;;;;4984875;28;20299;-76
2022/08/14 11:48:32;;;;;;;10.15;4.75;;;30.10;62.90;;;;;;4984039;28;20200;-75
2022/08/14 11:51:24;;;;;;;7.10;4.25;;;30.20;61.60;;;;;;4969327;28;20269;-75
2022/08/14 11:54:02;;;;;;;8.38;4.45;;;30.30;61.10;;;;;;4970961;28;20216;-74
2022/08/14 11:56:36;;;;;;;11.07;4.30;;;30.40;60.50;;;;;;4971131;28;20197;-74
2022/08/14 11:59:08;;;;;;;6.25;4.13;;;30.40;61.20;;;;;;4978347;28;20651;-76
2022/08/14 12:01:38;;;;;;;8.60;4.78;;;30.50;61.20;;;;;;4973832;28;20189;-74
2022/08/14 12:04:12;;;;;;;8.38;5.13;;;30.50;61.20;;;;;;4972038;28;20194;-74
2022/08/14 12:07:00;;;;;;;12.13;6.10;;;30.60;62.20;;;;;;4984081;28;20205;-76
2022/08/14 12:09:34;;;;;;;11.30;5.60;;;30.60;62.60;;;;;;4985018;28;20886;-75
2022/08/14 12:12:13;;;;;;;11.80;5.60;;;30.60;63.10;;;;;;4975130;28;20196;-75
2022/08/14 12:15:02;;;;;;;9.52;5.78;;;30.60;63.10;;;;;;4983568;28;20205;-74
2022/08/14 12:17:43;;;;;;;9.35;5.15;;;30.60;62.80;;;;;;4982704;28;20208;-74
2022/08/14 12:20:21;;;;;;;11.50;5.03;;;30.60;62.80;;;;;;4980951;28;20722;-73
2022/08/14 12:23:01;;;;;;;8.80;4.72;;;30.50;62.20;;;;;;4981288;28;20200;-75
2022/08/14 12:25:33;;;;;;;10.07;5.80;;;30.60;62.10;;;;;;4980797;28;20483;-73
2022/08/14 12:28:10;;;;;;;10.25;5.65;;;30.60;62.20;;;;;;4980314;28;20247;-73
2022/08/14 12:30:58;;;;;;;10.50;6.22;;;30.60;62.40;;;;;;4969682;28;20810;-74
2022/08/14 12:33:31;;;;;;;10.40;6.45;;;30.60;62.10;;;;;;4979151;28;20225;-74
2022/08/14 12:36:04;;;;;;;9.43;5.43;;;30.70;62.00;;;;;;4978730;28;20658;-75
2022/08/14 12:38:40;;;;;;;10.45;5.20;;;30.70;61.80;;;;;;4985120;28;20208;-75
2022/08/14 12:41:13;;;;;;;8.57;5.60;;;30.70;61.60;;;;;;4973831;28;20237;-73
2022/08/14 12:43:56;;;;;;;14.93;6.30;;;30.70;61.80;;;;;;4971541;28;20276;-73
2022/08/14 12:46:29;;;;;;;9.40;5.95;;;30.60;61.50;;;;;;4979168;28;20190;-73
2022/08/14 12:49:05;;;;;;;10.68;5.80;;;30.60;61.30;;;;;;4983257;28;20208;-73
2022/08/14 12:51:36;;;;;;;11.93;5.85;;;30.60;61.30;;;;;;4978593;28;20281;-74
2022/08/14 12:54:14;;;;;;;10.18;5.32;;;30.50;61.00;;;;;;4978164;28;20239;-73
2022/08/14 12:57:05;;;;;;;14.35;6.50;;;30.50;61.20;;;;;;4971807;28;21119;-73
2022/08/14 12:59:35;;;;;;;11.15;6.07;;;30.50;61.30;;;;;;4973519;28;20196;-73
2022/08/14 13:02:21;;;;;;;10.45;6.43;;;30.50;61.60;;;;;;4977488;28;20194;-73
2022/08/14 13:04:54;;;;;;;13.75;6.35;;;30.50;62.30;;;;;;4977494;28;20205;-73
2022/08/14 13:07:26;;;;;;;9.75;6.22;;;30.40;62.90;;;;;;4987700;28;20286;-73
2022/08/14 13:10:01;;;;;;;12.07;7.35;;;30.40;63.70;;;;;;4980967;28;20201;-73
2022/08/14 13:12:51;;;;;;;11.20;6.50;;;30.40;64.10;;;;;;4974189;28;20254;-76
2022/08/14 13:15:40;;;;;;;12.55;7.10;;;30.30;64.40;;;;;;4976752;28;20199;-73
2022/08/14 13:18:14;;;;;;;9.38;7.10;;;30.20;65.10;;;;;;4962446;28;20198;-73
2022/08/14 13:20:45;;;;;;;11.63;5.95;;;30.10;65.30;;;;;;4975917;28;20790;-74
2022/08/14 13:23:25;;;;;;;10.85;6.15;;;30.10;65.10;;;;;;4956218;28;20206;-74
2022/08/14 13:26:00;;;;;;;11.32;5.43;;;30.00;64.80;;;;;;4975735;28;20714;-73
2022/08/14 13:28:31;;;;;;;8.38;5.25;;;29.90;64.60;;;;;;4973472;28;20769;-74
2022/08/14 13:31:03;;;;;;;11.25;5.55;;;29.80;64.60;;;;;;4969852;28;20198;-73
2022/08/14 13:33:39;;;;;;;6.90;5.13;;;29.80;64.80;;;;;;4972389;28;20205;-73
2022/08/14 13:36:09;;;;;;;9.18;5.78;;;29.60;65.00;;;;;;4974522;28;20197;-72
2022/08/14 13:38:55;;;;;;;9.02;5.30;;;29.70;65.20;;;;;;4965102;28;20190;-74
2022/08/14 13:41:27;;;;;;;10.27;6.32;;;29.60;65.20;;;;;;4981929;28;20582;-73
2022/08/14 13:44:04;;;;;;;9.68;5.97;;;29.50;65.30;;;;;;4978847;28;20221;-73
2022/08/14 13:46:43;;;;;;;8.68;5.65;;;29.40;65.10;;;;;;4962862;28;20252;-74